createdAt,value
2019-04-06T00:03:24.498Z,76.07
2019-04-06T00:08:26.094Z,79.92
2019-04-06T00:13:27.665Z,75.22
2019-04-06T00:18:29.035Z,74.37
2019-04-06T00:23:30.579Z,74.17
2019-04-06T00:28:32.090Z,75.03
2019-04-06T00:33:33.707Z,85.50
2019-04-06T00:38:35.113Z,86.28
2019-04-06T00:43:36.600Z,86.70
2019-04-06T00:48:37.966Z,92.67
2019-04-06T00:53:39.441Z,86.80
2019-04-06T00:58:41.052Z,81.17
2019-04-06T01:03:42.396Z,86.90
2019-04-06T01:08:44.081Z,85.45
2019-04-06T01:13:45.653Z,78.05
2019-04-06T01:18:47.091Z,82.37
2019-04-06T01:23:48.661Z,79.10
2019-04-06T01:28:50.194Z,77.97
2019-04-06T01:33:52.116Z,80.07
2019-04-06T01:38:53.773Z,82.65
2019-04-06T01:43:55.512Z,81.15
2019-04-06T01:48:57.597Z,83.22
2019-04-06T01:53:59.306Z,80.47
2019-04-06T01:59:00.644Z,81.08
2019-04-06T02:04:02.000Z,91.75
2019-04-06T02:09:05.210Z,88.47
2019-04-06T02:14:06.537Z,87.10
2019-04-06T02:19:07.873Z,93.62
2019-04-06T02:24:09.333Z,93.65
2019-04-06T02:29:10.667Z,85.42
2019-04-06T02:34:30.715Z,83.47
2019-04-06T02:39:39.597Z,90.53
2019-04-06T02:44:41.164Z,89.58
2019-04-06T02:49:42.646Z,88.30
2019-04-06T02:54:44.022Z,98.00
2019-04-06T02:59:45.717Z,91.87
2019-04-06T03:04:47.385Z,99.52
2019-04-06T03:09:48.984Z,95.10
2019-04-06T03:14:50.843Z,96.08
2019-04-06T03:19:52.547Z,93.58
2019-04-06T03:24:54.072Z,89.87
2019-04-06T03:29:58.213Z,96.55
2019-04-06T03:40:18.165Z,100.18
2019-04-06T03:45:19.506Z,92.53
2019-04-06T03:50:20.911Z,98.42
2019-04-06T03:55:22.549Z,96.78
2019-04-06T04:00:24.214Z,100.55
2019-04-06T04:05:26.110Z,101.22
2019-04-06T04:10:35.032Z,91.15
2019-04-06T04:15:36.655Z,99.25
2019-04-06T04:20:38.156Z,97.62
2019-04-06T04:30:59.664Z,92.40
2019-04-06T04:36:01.521Z,94.90
2019-04-06T04:41:03.291Z,101.67
2019-04-06T04:46:04.776Z,98.45
2019-04-06T04:51:06.279Z,87.65
2019-04-06T04:56:07.704Z,94.05
2019-04-06T05:01:08.998Z,96.45
2019-04-06T05:06:10.424Z,101.55
2019-04-06T05:11:12.084Z,101.20
2019-04-06T05:16:13.794Z,103.00
2019-04-06T05:21:15.118Z,98.22
2019-04-06T05:26:16.701Z,98.42
2019-04-06T05:31:18.568Z,92.55
2019-04-06T05:36:19.879Z,91.02
2019-04-06T05:41:21.229Z,96.35
2019-04-06T05:46:22.558Z,98.07
2019-04-06T05:51:24.759Z,103.32
2019-04-06T05:56:26.256Z,92.72
2019-04-06T06:01:27.813Z,98.90
2019-04-06T06:06:29.358Z,100.42
2019-04-06T06:11:30.761Z,109.03
2019-04-06T06:16:33.007Z,103.55
2019-04-06T06:21:34.451Z,98.12
2019-04-06T06:26:35.860Z,111.55
2019-04-06T06:31:37.426Z,101.80
2019-04-06T06:36:39.124Z,104.20
2019-04-06T06:41:40.507Z,108.00
2019-04-06T06:46:41.948Z,106.10
2019-04-06T06:51:43.378Z,105.50
2019-04-06T06:56:44.859Z,102.07
2019-04-06T07:01:46.161Z,107.03
2019-04-06T07:06:47.652Z,101.80
2019-04-06T07:11:49.153Z,105.72
2019-04-06T07:16:50.845Z,105.22
2019-04-06T07:21:52.504Z,101.78
2019-04-06T07:26:53.778Z,103.55
2019-04-06T07:31:57.149Z,101.90
2019-04-06T07:36:58.669Z,99.92
2019-04-06T07:42:00.038Z,90.75
2019-04-06T07:47:01.623Z,94.25
2019-04-06T07:52:03.236Z,98.15
2019-04-06T07:57:06.192Z,90.25
2019-04-06T08:02:07.851Z,85.28
2019-04-06T08:07:09.328Z,92.12
2019-04-06T08:12:13.389Z,98.45
2019-04-06T08:17:14.865Z,91.90
2019-04-06T08:22:16.272Z,88.45
2019-04-06T08:27:17.910Z,87.57
2019-04-06T08:32:19.237Z,91.45
2019-04-06T08:37:22.381Z,88.00
2019-04-06T08:42:23.858Z,86.17
2019-04-06T08:47:25.594Z,85.53
2019-04-06T08:52:27.102Z,81.00
2019-04-06T08:57:29.843Z,78.40
2019-04-06T09:02:31.858Z,72.53
2019-04-06T09:07:35.173Z,65.50
2019-04-06T09:12:37.554Z,68.60
2019-04-06T09:17:38.931Z,66.95
2019-04-06T09:22:40.875Z,62.20
2019-04-06T09:27:42.691Z,57.83
2019-04-06T09:32:44.052Z,60.60
2019-04-06T09:37:45.612Z,59.40
2019-04-06T09:42:46.928Z,55.05
2019-04-06T09:47:50.685Z,50.03
2019-04-06T09:52:55.109Z,54.93
2019-04-06T09:58:15.353Z,53.95
2019-04-06T10:03:18.806Z,53.40
2019-04-06T10:08:28.347Z,58.68
2019-04-06T10:13:49.851Z,55.30
2019-04-06T10:18:53.304Z,49.60
2019-04-06T10:23:57.061Z,51.90
2019-04-06T10:29:09.304Z,42.03
2019-04-06T10:34:18.750Z,43.87
2019-04-06T10:39:40.040Z,38.48
2019-04-06T10:44:49.418Z,41.40
2019-04-06T10:50:10.855Z,43.17
2019-04-06T10:55:26.146Z,39.10
2019-04-06T11:00:32.576Z,45.48
2019-04-06T11:05:41.834Z,41.80
2019-04-06T11:10:45.166Z,36.85
2019-04-06T11:15:57.513Z,41.48
2019-04-06T11:21:01.129Z,39.03
2019-04-06T11:26:19.369Z,34.43
2019-04-06T11:31:39.359Z,33.80
2019-04-06T11:36:48.859Z,48.38
2019-04-06T11:41:54.578Z,40.70
2019-04-06T11:47:09.663Z,44.13
2019-04-06T11:52:28.269Z,40.15
2019-04-06T11:57:40.586Z,33.20
2019-04-06T12:02:43.892Z,31.87
2019-04-06T12:07:47.132Z,33.42
2019-04-06T12:13:07.066Z,31.07
2019-04-06T12:18:18.395Z,34.48
2019-04-06T12:23:37.736Z,29.52
2019-04-06T12:28:57.727Z,30.52
2019-04-06T12:34:10.568Z,31.12
2019-04-06T12:39:16.233Z,23.57
2019-04-06T12:44:22.278Z,22.67
2019-04-06T12:49:31.487Z,23.10
2019-04-06T12:54:38.607Z,23.98
2019-04-06T12:59:45.033Z,20.95
2019-04-06T13:04:48.775Z,23.22
2019-04-06T13:09:54.822Z,24.75
2019-04-06T13:15:03.968Z,22.77
2019-04-06T13:20:17.449Z,21.02
2019-04-06T13:25:23.603Z,21.42
2019-04-06T13:30:26.874Z,23.18
2019-04-06T13:35:36.088Z,23.62
2019-04-06T13:40:45.148Z,23.73
2019-04-06T13:45:51.534Z,21.68
2019-04-06T13:50:54.922Z,25.43
2019-04-06T13:56:02.102Z,26.65
2019-04-06T14:01:16.266Z,28.35
2019-04-06T14:06:22.617Z,27.07
2019-04-06T14:11:35.312Z,25.27
2019-04-06T14:16:40.417Z,27.73
2019-04-06T14:22:00.310Z,28.02
2019-04-06T14:27:09.095Z,28.50
2019-04-06T14:32:21.351Z,32.55
2019-04-06T14:37:27.478Z,29.18
2019-04-06T14:42:37.499Z,33.48
2019-04-06T14:47:49.860Z,30.88
2019-04-06T14:52:59.319Z,31.26
2019-04-06T14:58:21.178Z,30.85
2019-04-06T15:08:42.306Z,34.10
2019-04-06T15:13:46.831Z,33.42
2019-04-06T15:18:50.226Z,33.38
2019-04-06T15:23:56.299Z,38.23
2019-04-06T15:29:16.136Z,35.00
2019-04-06T15:34:35.868Z,34.60
2019-04-06T15:39:56.011Z,40.60
2019-04-06T15:45:08.573Z,33.20
2019-04-06T15:50:26.955Z,40.50
2019-04-06T15:55:33.453Z,44.08
2019-04-06T16:00:48.520Z,44.60
2019-04-06T16:06:03.917Z,46.65
2019-04-06T16:11:25.707Z,51.55
2019-04-06T16:16:32.092Z,49.67
2019-04-06T16:21:37.522Z,45.28
2019-04-06T16:26:55.993Z,45.10
2019-04-06T16:32:14.248Z,45.90
2019-04-06T16:37:23.583Z,45.10
2019-04-06T16:42:41.942Z,45.33
2019-04-06T16:47:47.909Z,47.23
2019-04-06T16:53:00.352Z,47.95
2019-04-06T16:58:20.265Z,48.65
2019-04-06T17:03:26.469Z,45.90
2019-04-06T17:08:32.550Z,47.45
2019-04-06T17:13:53.684Z,44.27
2019-04-06T17:18:59.758Z,44.95
2019-04-06T17:24:09.362Z,44.33
2019-04-06T17:29:21.864Z,48.00
2019-04-06T17:34:27.755Z,46.08
2019-04-06T17:39:43.609Z,44.98
2019-04-06T17:45:03.583Z,55.75
2019-04-06T17:50:25.776Z,46.60
2019-04-06T17:55:35.217Z,48.83
2019-04-06T18:00:57.213Z,48.17
2019-04-06T18:06:09.904Z,45.80
2019-04-06T18:11:19.345Z,50.25
2019-04-06T18:16:23.291Z,60.92
2019-04-06T18:21:24.688Z,55.35
2019-04-06T18:26:26.706Z,49.85
2019-04-06T18:31:30.177Z,51.90
2019-04-06T18:36:33.630Z,52.98
2019-04-06T18:41:35.129Z,56.08
2019-04-06T18:46:37.109Z,53.40
2019-04-06T18:51:38.618Z,58.70
2019-04-06T18:56:40.152Z,63.08
2019-04-06T19:01:41.642Z,61.90
2019-04-06T19:06:43.219Z,64.82
2019-04-06T19:11:54.262Z,66.42
2019-04-06T19:16:48.356Z,70.00
2019-04-06T19:21:49.786Z,71.97
2019-04-06T19:26:51.125Z,77.80
2019-04-06T19:31:54.403Z,72.37
2019-04-06T19:36:56.216Z,77.95
2019-04-06T19:41:57.663Z,79.92
2019-04-06T19:46:59.715Z,80.70
2019-04-06T19:52:01.551Z,81.30
2019-04-06T19:57:03.663Z,88.20
2019-04-06T20:02:05.435Z,82.95
2019-04-06T20:07:07.041Z,91.95
2019-04-06T20:12:09.139Z,96.95
2019-04-06T20:17:10.514Z,96.75
2019-04-06T20:22:11.993Z,96.82
2019-04-06T20:27:13.720Z,100.27
2019-04-06T20:32:15.906Z,98.17
2019-04-06T20:37:17.561Z,108.40
2019-04-06T20:42:18.930Z,106.67
2019-04-06T20:47:21.547Z,105.25
2019-04-06T20:52:23.071Z,107.97
2019-04-06T20:57:24.448Z,102.53
2019-04-06T21:02:25.872Z,105.00
2019-04-06T21:07:27.371Z,105.15
2019-04-06T21:12:28.724Z,102.40
2019-04-06T21:17:30.143Z,102.42
2019-04-06T21:22:31.597Z,102.47
2019-04-06T21:27:32.993Z,112.65
2019-04-06T21:32:34.473Z,119.20
2019-04-06T21:37:36.043Z,112.35
2019-04-06T21:42:40.883Z,122.92
2019-04-06T21:47:44.158Z,124.95
2019-04-06T21:53:04.593Z,128.38
2019-04-06T21:58:06.078Z,119.90
2019-04-06T22:03:07.622Z,122.65
2019-04-06T22:08:28.207Z,121.75
2019-04-06T22:13:30.002Z,117.77
2019-04-06T22:18:32.778Z,124.97
2019-04-06T22:23:42.023Z,119.08
2019-04-06T22:28:37.969Z,115.22
2019-04-06T22:33:40.994Z,120.15
2019-04-06T22:38:43.336Z,116.90
2019-04-06T22:43:44.801Z,119.05
2019-04-06T22:48:46.223Z,126.82
2019-04-06T22:53:49.607Z,115.70
2019-04-06T22:58:51.563Z,119.33
2019-04-06T23:04:07.581Z,121.55
2019-04-06T23:09:12.185Z,115.97
2019-04-06T23:14:13.837Z,117.65
2019-04-06T23:19:15.382Z,124.78
2019-04-06T23:24:21.627Z,118.02
2019-04-06T23:29:23.387Z,122.37
2019-04-06T23:34:25.838Z,128.57
2019-04-06T23:39:27.406Z,120.13
2019-04-06T23:44:28.688Z,122.82
2019-04-06T23:49:30.125Z,117.60
2019-04-06T23:54:31.756Z,115.65
2019-04-06T23:59:33.061Z,122.22
